sensor_id;sensor_type;location;lat;lon;timestamp;pressure;altitude;pressure_sealevel;temperature;humidity
64228;BME280;50546;49.146;10.616;2022-11-02T00:00:28;96910.81;;;8.97;82.92
64228;BME280;50546;49.146;10.616;2022-11-02T00:02:54;96909.19;;;8.96;82.49
64228;BME280;50546;49.146;10.616;2022-11-02T00:05:20;96914.19;;;8.65;83.49
64228;BME280;50546;49.146;10.616;2022-11-02T00:07:52;96917.69;;;8.41;84.66
64228;BME280;50546;49.146;10.616;2022-11-02T00:10:18;96915.97;;;8.51;84.93
64228;BME280;50546;49.146;10.616;2022-11-02T00:12:45;96917.53;;;8.28;85.95
64228;BME280;50546;49.146;10.616;2022-11-02T00:15:11;96918.16;;;8.19;86.34
64228;BME280;50546;49.146;10.616;2022-11-02T00:17:37;96921.16;;;8.18;87.40
64228;BME280;50546;49.146;10.616;2022-11-02T00:20:04;96909.72;;;8.31;87.33
64228;BME280;50546;49.146;10.616;2022-11-02T00:22:30;96910.25;;;8.57;86.09
64228;BME280;50546;49.146;10.616;2022-11-02T00:24:58;96924.88;;;8.70;85.37
64228;BME280;50546;49.146;10.616;2022-11-02T00:27:25;96926.72;;;8.94;84.47
64228;BME280;50546;49.146;10.616;2022-11-02T00:29:50;96927.94;;;9.01;83.66
64228;BME280;50546;49.146;10.616;2022-11-02T00:32:16;96930.28;;;9.27;84.00
64228;BME280;50546;49.146;10.616;2022-11-02T00:34:41;96920.59;;;9.45;83.35
64228;BME280;50546;49.146;10.616;2022-11-02T00:37:06;96915.03;;;9.55;83.06
64228;BME280;50546;49.146;10.616;2022-11-02T00:39:32;96926.16;;;9.67;82.48
64228;BME280;50546;49.146;10.616;2022-11-02T00:41:57;96927.66;;;9.73;82.53
64228;BME280;50546;49.146;10.616;2022-11-02T00:44:22;96931.84;;;9.79;82.32
64228;BME280;50546;49.146;10.616;2022-11-02T00:46:47;96930.09;;;9.88;82.27
64228;BME280;50546;49.146;10.616;2022-11-02T00:49:13;96933.97;;;9.82;83.01
64228;BME280;50546;49.146;10.616;2022-11-02T00:51:38;96929.16;;;9.79;82.35
64228;BME280;50546;49.146;10.616;2022-11-02T00:54:03;96933.38;;;9.85;82.56
64228;BME280;50546;49.146;10.616;2022-11-02T00:56:29;96933.47;;;9.94;81.54
64228;BME280;50546;49.146;10.616;2022-11-02T00:58:54;96929.09;;;9.98;81.84
64228;BME280;50546;49.146;10.616;2022-11-02T01:01:19;96935.47;;;9.88;81.83
64228;BME280;50546;49.146;10.616;2022-11-02T01:03:44;96939.75;;;9.89;82.40
64228;BME280;50546;49.146;10.616;2022-11-02T01:06:14;96933.19;;;9.96;81.28
64228;BME280;50546;49.146;10.616;2022-11-02T01:08:39;96935.28;;;9.85;82.04
64228;BME280;50546;49.146;10.616;2022-11-02T01:11:20;96929.09;;;9.98;81.78
64228;BME280;50546;49.146;10.616;2022-11-02T01:13:45;96937.09;;;10.03;81.39
64228;BME280;50546;49.146;10.616;2022-11-02T01:16:12;96930.03;;;10.07;80.80
64228;BME280;50546;49.146;10.616;2022-11-02T01:18:38;96929.72;;;10.09;82.48
64228;BME280;50546;49.146;10.616;2022-11-02T01:21:04;96924.16;;;10.19;82.31
64228;BME280;50546;49.146;10.616;2022-11-02T01:23:34;96925.75;;;10.20;81.48
64228;BME280;50546;49.146;10.616;2022-11-02T01:26:07;96923.47;;;10.13;80.87
64228;BME280;50546;49.146;10.616;2022-11-02T01:28:33;96920.06;;;10.08;81.83
64228;BME280;50546;49.146;10.616;2022-11-02T01:30:58;96920.47;;;10.15;85.03
64228;BME280;50546;49.146;10.616;2022-11-02T01:33:25;96917.19;;;10.18;86.81
64228;BME280;50546;49.146;10.616;2022-11-02T01:35:51;96918.56;;;10.16;87.68
64228;BME280;50546;49.146;10.616;2022-11-02T01:38:16;96920.47;;;10.15;86.86
64228;BME280;50546;49.146;10.616;2022-11-02T01:40:41;96925.09;;;10.28;86.77
64228;BME280;50546;49.146;10.616;2022-11-02T01:43:25;96925.53;;;10.03;81.78
64228;BME280;50546;49.146;10.616;2022-11-02T01:46:06;96919.16;;;9.99;79.86
64228;BME280;50546;49.146;10.616;2022-11-02T01:48:34;96930.78;;;9.94;79.36
64228;BME280;50546;49.146;10.616;2022-11-02T01:51:04;96924.34;;;9.95;79.81
64228;BME280;50546;49.146;10.616;2022-11-02T01:53:30;96930.84;;;9.75;80.86
64228;BME280;50546;49.146;10.616;2022-11-02T01:55:58;96919.38;;;9.70;81.37
64228;BME280;50546;49.146;10.616;2022-11-02T01:58:25;96928.47;;;9.55;83.05
64228;BME280;50546;49.146;10.616;2022-11-02T02:00:51;96929.03;;;9.71;86.79
64228;BME280;50546;49.146;10.616;2022-11-02T02:03:17;96929.88;;;9.85;87.19
64228;BME280;50546;49.146;10.616;2022-11-02T02:05:53;96928.00;;;9.85;86.47
64228;BME280;50546;49.146;10.616;2022-11-02T02:08:20;96926.19;;;9.81;87.00
64228;BME280;50546;49.146;10.616;2022-11-02T02:10:48;96922.19;;;9.78;86.90
64228;BME280;50546;49.146;10.616;2022-11-02T02:13:15;96921.44;;;9.59;87.27
64228;BME280;50546;49.146;10.616;2022-11-02T02:15:49;96923.41;;;9.53;87.39
64228;BME280;50546;49.146;10.616;2022-11-02T02:18:32;96921.81;;;9.52;87.29
64228;BME280;50546;49.146;10.616;2022-11-02T02:24:21;96917.66;;;9.60;86.21
64228;BME280;50546;49.146;10.616;2022-11-02T02:30:07;96921.69;;;9.25;88.50
64228;BME280;50546;49.146;10.616;2022-11-02T02:32:43;96909.56;;;9.08;89.38
64228;BME280;50546;49.146;10.616;2022-11-02T02:37:57;96894.69;;;8.97;90.58
64228;BME280;50546;49.146;10.616;2022-11-02T02:40:32;96892.38;;;8.90;90.93
64228;BME280;50546;49.146;10.616;2022-11-02T02:43:05;96887.03;;;8.85;91.23
64228;BME280;50546;49.146;10.616;2022-11-02T02:45:38;96901.28;;;8.86;91.96
64228;BME280;50546;49.146;10.616;2022-11-02T02:48:16;96887.03;;;8.85;91.68
64228;BME280;50546;49.146;10.616;2022-11-02T02:51:03;96890.91;;;8.79;91.96
64228;BME280;50546;49.146;10.616;2022-11-02T02:53:35;96883.69;;;8.75;91.93
64228;BME280;50546;49.146;10.616;2022-11-02T02:56:03;96885.16;;;8.67;92.40
64228;BME280;50546;49.146;10.616;2022-11-02T02:58:43;96890.03;;;8.65;92.67
64228;BME280;50546;49.146;10.616;2022-11-02T03:01:13;96894.59;;;8.64;92.42
64228;BME280;50546;49.146;10.616;2022-11-02T03:03:41;96882.91;;;8.74;92.08
64228;BME280;50546;49.146;10.616;2022-11-02T03:06:21;96885.59;;;8.74;91.92
64228;BME280;50546;49.146;10.616;2022-11-02T03:08:56;96881.16;;;8.64;91.78
64228;BME280;50546;49.146;10.616;2022-11-02T03:11:27;96878.19;;;8.66;91.95
64228;BME280;50546;49.146;10.616;2022-11-02T03:14:01;96873.03;;;8.70;91.08
64228;BME280;50546;49.146;10.616;2022-11-02T03:19:27;96889.25;;;8.83;90.51
64228;BME280;50546;49.146;10.616;2022-11-02T03:22:23;96885.97;;;8.86;89.63
64228;BME280;50546;49.146;10.616;2022-11-02T03:27:56;96895.97;;;9.00;89.26
64228;BME280;50546;49.146;10.616;2022-11-02T03:30:25;96889.22;;;9.02;88.63
64228;BME280;50546;49.146;10.616;2022-11-02T03:33:06;96891.13;;;9.02;88.75
64228;BME280;50546;49.146;10.616;2022-11-02T03:35:51;96888.94;;;9.04;89.11
64228;BME280;50546;49.146;10.616;2022-11-02T03:38:22;96886.19;;;9.09;89.13
64228;BME280;50546;49.146;10.616;2022-11-02T03:40:51;96891.13;;;9.02;88.28
64228;BME280;50546;49.146;10.616;2022-11-02T03:43:19;96884.75;;;8.98;89.00
64228;BME280;50546;49.146;10.616;2022-11-02T03:45:51;96890.81;;;8.84;89.36
64228;BME280;50546;49.146;10.616;2022-11-02T03:48:19;96887.22;;;8.75;89.57
64228;BME280;50546;49.146;10.616;2022-11-02T03:50:47;96883.47;;;8.71;90.25
64228;BME280;50546;49.146;10.616;2022-11-02T03:53:19;96894.53;;;8.70;90.04
64228;BME280;50546;49.146;10.616;2022-11-02T03:56:07;96902.81;;;8.73;90.70
64228;BME280;50546;49.146;10.616;2022-11-02T03:58:34;96890.81;;;8.84;90.35
64228;BME280;50546;49.146;10.616;2022-11-02T04:01:02;96892.94;;;8.87;89.45
64228;BME280;50546;49.146;10.616;2022-11-02T04:03:30;96898.44;;;8.96;89.56
64228;BME280;50546;49.146;10.616;2022-11-02T04:05:56;96911.84;;;9.01;88.73
64228;BME280;50546;49.146;10.616;2022-11-02T04:08:27;96911.53;;;9.03;88.36
64228;BME280;50546;49.146;10.616;2022-11-02T04:10:54;96922.84;;;9.00;88.24
64228;BME280;50546;49.146;10.616;2022-11-02T04:13:38;96915.00;;;9.03;88.16
64228;BME280;50546;49.146;10.616;2022-11-02T04:16:22;96915.44;;;9.10;87.92
64228;BME280;50546;49.146;10.616;2022-11-02T04:18:48;96912.47;;;9.12;87.35
64228;BME280;50546;49.146;10.616;2022-11-02T04:21:31;96915.09;;;9.17;87.67
64228;BME280;50546;49.146;10.616;2022-11-02T04:23:57;96919.53;;;9.08;87.86
64228;BME280;50546;49.146;10.616;2022-11-02T04:26:41;96904.19;;;9.08;87.76
64228;BME280;50546;49.146;10.616;2022-11-02T04:29:06;96890.91;;;8.98;88.66
64228;BME280;50546;49.146;10.616;2022-11-02T04:31:31;96891.91;;;9.02;88.55
64228;BME280;50546;49.146;10.616;2022-11-02T04:33:57;96901.13;;;8.96;88.71
64228;BME280;50546;49.146;10.616;2022-11-02T04:36:24;96891.63;;;8.85;89.34
64228;BME280;50546;49.146;10.616;2022-11-02T04:38:50;96894.44;;;8.75;89.89
64228;BME280;50546;49.146;10.616;2022-11-02T04:41:17;96892.63;;;8.70;90.25
64228;BME280;50546;49.146;10.616;2022-11-02T04:44:02;96903.44;;;8.65;90.41
64228;BME280;50546;49.146;10.616;2022-11-02T04:46:30;96913.31;;;8.70;90.44
64228;BME280;50546;49.146;10.616;2022-11-02T04:48:56;96913.03;;;8.71;90.52
64228;BME280;50546;49.146;10.616;2022-11-02T04:51:22;96915.72;;;8.71;90.23
64228;BME280;50546;49.146;10.616;2022-11-02T04:53:48;96917.31;;;8.72;90.21
64228;BME280;50546;49.146;10.616;2022-11-02T04:56:14;96912.13;;;8.57;90.51
64228;BME280;50546;49.146;10.616;2022-11-02T04:58:40;96920.47;;;8.55;91.01
64228;BME280;50546;49.146;10.616;2022-11-02T05:01:06;96913.78;;;8.53;91.32
64228;BME280;50546;49.146;10.616;2022-11-02T05:03:32;96915.75;;;8.47;90.96
64228;BME280;50546;49.146;10.616;2022-11-02T05:05:57;96922.78;;;8.43;91.21
64228;BME280;50546;49.146;10.616;2022-11-02T05:08:23;96923.06;;;8.41;91.36
64228;BME280;50546;49.146;10.616;2022-11-02T05:10:48;96920.31;;;8.47;91.45
64228;BME280;50546;49.146;10.616;2022-11-02T05:13:13;96916.63;;;8.42;91.39
64228;BME280;50546;49.146;10.616;2022-11-02T05:15:39;96915.03;;;8.36;91.42
64228;BME280;50546;49.146;10.616;2022-11-02T05:18:04;96930.63;;;8.34;91.52
64228;BME280;50546;49.146;10.616;2022-11-02T05:20:29;96929.03;;;8.33;91.81
64228;BME280;50546;49.146;10.616;2022-11-02T05:22:54;96923.22;;;8.26;91.79
64228;BME280;50546;49.146;10.616;2022-11-02T05:25:20;96930.22;;;8.22;91.80
64228;BME280;50546;49.146;10.616;2022-11-02T05:27:45;96932.34;;;8.25;91.69
64228;BME280;50546;49.146;10.616;2022-11-02T05:30:11;96925.97;;;8.21;92.10
64228;BME280;50546;49.146;10.616;2022-11-02T05:32:37;96920.69;;;8.11;92.17
64228;BME280;50546;49.146;10.616;2022-11-02T05:35:02;96928.28;;;8.04;92.31
64228;BME280;50546;49.146;10.616;2022-11-02T05:37:28;96931.22;;;8.02;93.05
64228;BME280;50546;49.146;10.616;2022-11-02T05:39:53;96930.25;;;7.93;93.36
64228;BME280;50546;49.146;10.616;2022-11-02T05:42:18;96933.19;;;7.91;93.46
64228;BME280;50546;49.146;10.616;2022-11-02T05:44:44;96928.38;;;7.93;93.12
64228;BME280;50546;49.146;10.616;2022-11-02T05:47:09;96928.53;;;8.02;92.75
64228;BME280;50546;49.146;10.616;2022-11-02T05:49:34;96933.13;;;8.02;92.71
64228;BME280;50546;49.146;10.616;2022-11-02T05:52:00;96937.22;;;7.94;93.02
64228;BME280;50546;49.146;10.616;2022-11-02T05:54:25;96928.66;;;7.92;93.27
64228;BME280;50546;49.146;10.616;2022-11-02T05:56:50;96929.13;;;7.99;93.09
64228;BME280;50546;49.146;10.616;2022-11-02T05:59:15;96936.78;;;8.11;92.11
64228;BME280;50546;49.146;10.616;2022-11-02T06:01:41;96939.72;;;8.14;91.65
64228;BME280;50546;49.146;10.616;2022-11-02T06:04:06;96939.72;;;8.14;91.60
64228;BME280;50546;49.146;10.616;2022-11-02T06:06:31;96947.19;;;8.17;91.43
64228;BME280;50546;49.146;10.616;2022-11-02T06:08:57;96945.31;;;8.18;91.56
64228;BME280;50546;49.146;10.616;2022-11-02T06:11:22;96948.88;;;8.08;91.75
64228;BME280;50546;49.146;10.616;2022-11-02T06:13:49;96946.59;;;7.96;92.16
64228;BME280;50546;49.146;10.616;2022-11-02T06:16:16;96955.25;;;7.88;92.99
64228;BME280;50546;49.146;10.616;2022-11-02T06:18:42;96963.00;;;7.90;93.03
64228;BME280;50546;49.146;10.616;2022-11-02T06:21:07;96960.31;;;7.90;93.19
64228;BME280;50546;49.146;10.616;2022-11-02T06:23:33;96959.06;;;7.82;93.61
64228;BME280;50546;49.146;10.616;2022-11-02T06:26:00;96962.84;;;7.76;94.25
64228;BME280;50546;49.146;10.616;2022-11-02T06:28:26;96963.66;;;7.77;94.42
64228;BME280;50546;49.146;10.616;2022-11-02T06:30:52;96961.25;;;7.75;94.30
64228;BME280;50546;49.146;10.616;2022-11-02T06:33:18;96963.41;;;7.73;94.66
64228;BME280;50546;49.146;10.616;2022-11-02T06:35:45;96972.28;;;7.74;94.31
64228;BME280;50546;49.146;10.616;2022-11-02T06:38:11;96953.22;;;7.75;94.97
64228;BME280;50546;49.146;10.616;2022-11-02T06:40:37;96978.94;;;7.76;94.44
64228;BME280;50546;49.146;10.616;2022-11-02T06:43:02;96956.38;;;7.82;93.98
64228;BME280;50546;49.146;10.616;2022-11-02T06:45:27;96966.53;;;7.85;93.71
64228;BME280;50546;49.146;10.616;2022-11-02T06:47:53;96961.69;;;7.87;93.57
64228;BME280;50546;49.146;10.616;2022-11-02T06:50:18;96971.00;;;7.95;93.45
64228;BME280;50546;49.146;10.616;2022-11-02T06:52:45;96979.75;;;8.06;93.01
64228;BME280;50546;49.146;10.616;2022-11-02T06:55:12;96971.06;;;8.19;92.49
64228;BME280;50546;49.146;10.616;2022-11-02T06:57:38;96973.91;;;8.28;91.74
64228;BME280;50546;49.146;10.616;2022-11-02T07:00:05;96973.97;;;8.23;92.04
64228;BME280;50546;49.146;10.616;2022-11-02T07:02:31;96985.81;;;8.16;92.37
64228;BME280;50546;49.146;10.616;2022-11-02T07:04:56;96981.31;;;8.12;92.95
64228;BME280;50546;49.146;10.616;2022-11-02T07:07:22;96995.25;;;8.14;93.13
64228;BME280;50546;49.146;10.616;2022-11-02T07:09:47;96996.56;;;8.16;92.84
64228;BME280;50546;49.146;10.616;2022-11-02T07:12:12;96992.47;;;8.24;92.91
64228;BME280;50546;49.146;10.616;2022-11-02T07:14:38;97008.53;;;8.29;92.31
64228;BME280;50546;49.146;10.616;2022-11-02T07:17:03;97012.25;;;8.33;92.19
64228;BME280;50546;49.146;10.616;2022-11-02T07:19:29;97017.03;;;8.41;91.87
64228;BME280;50546;49.146;10.616;2022-11-02T07:21:54;97017.44;;;8.54;91.28
64228;BME280;50546;49.146;10.616;2022-11-02T07:24:19;97017.63;;;8.62;90.83
64228;BME280;50546;49.146;10.616;2022-11-02T07:26:50;97023.09;;;8.76;89.82
64228;BME280;50546;49.146;10.616;2022-11-02T07:29:16;97027.47;;;8.72;90.19
64228;BME280;50546;49.146;10.616;2022-11-02T07:31:41;97033.22;;;8.84;89.23
64228;BME280;50546;49.146;10.616;2022-11-02T07:34:07;97043.72;;;8.81;89.59
64228;BME280;50546;49.146;10.616;2022-11-02T07:36:32;97024.94;;;8.81;90.04
64228;BME280;50546;49.146;10.616;2022-11-02T07:38:57;97027.16;;;8.74;90.52
64228;BME280;50546;49.146;10.616;2022-11-02T07:41:22;97033.66;;;8.67;90.94
64228;BME280;50546;49.146;10.616;2022-11-02T07:43:48;97038.75;;;8.69;90.45
64228;BME280;50546;49.146;10.616;2022-11-02T07:46:13;97036.13;;;8.88;89.56
64228;BME280;50546;49.146;10.616;2022-11-02T07:48:39;97031.97;;;9.01;89.13
64228;BME280;50546;49.146;10.616;2022-11-02T07:51:04;97044.00;;;9.03;89.32
64228;BME280;50546;49.146;10.616;2022-11-02T07:53:31;97049.25;;;9.13;88.36
64228;BME280;50546;49.146;10.616;2022-11-02T07:55:59;97053.41;;;9.25;88.74
64228;BME280;50546;49.146;10.616;2022-11-02T07:58:24;97052.94;;;9.23;88.50
64228;BME280;50546;49.146;10.616;2022-11-02T08:00:51;97053.28;;;9.35;87.93
64228;BME280;50546;49.146;10.616;2022-11-02T08:03:18;97049.47;;;9.41;87.54
64228;BME280;50546;49.146;10.616;2022-11-02T08:05:44;97059.47;;;9.54;86.66
64228;BME280;50546;49.146;10.616;2022-11-02T08:08:13;97055.63;;;9.79;85.63
64228;BME280;50546;49.146;10.616;2022-11-02T08:10:39;97055.78;;;9.88;85.83
64228;BME280;50546;49.146;10.616;2022-11-02T08:13:05;97057.56;;;10.11;84.34
64228;BME280;50546;49.146;10.616;2022-11-02T08:15:31;97069.72;;;10.42;83.46
64228;BME280;50546;49.146;10.616;2022-11-02T08:18:01;97066.50;;;10.72;81.08
64228;BME280;50546;49.146;10.616;2022-11-02T08:20:27;97068.44;;;11.13;79.15
64228;BME280;50546;49.146;10.616;2022-11-02T08:22:52;97070.97;;;11.60;76.86
64228;BME280;50546;49.146;10.616;2022-11-02T08:25:18;97074.91;;;11.90;75.44
64228;BME280;50546;49.146;10.616;2022-11-02T08:27:43;97081.69;;;12.23;73.96
64228;BME280;50546;49.146;10.616;2022-11-02T08:30:09;97082.97;;;12.48;72.82
64228;BME280;50546;49.146;10.616;2022-11-02T08:32:35;97080.38;;;12.66;72.62
64228;BME280;50546;49.146;10.616;2022-11-02T08:35:00;97086.03;;;12.87;71.88
64228;BME280;50546;49.146;10.616;2022-11-02T08:37:25;97071.63;;;13.00;71.77
64228;BME280;50546;49.146;10.616;2022-11-02T08:39:51;97073.34;;;13.27;71.34
64228;BME280;50546;49.146;10.616;2022-11-02T08:42:16;97081.19;;;13.46;71.12
64228;BME280;50546;49.146;10.616;2022-11-02T08:44:41;97072.59;;;13.53;71.47
64228;BME280;50546;49.146;10.616;2022-11-02T08:47:07;97069.28;;;13.73;71.84
64228;BME280;50546;49.146;10.616;2022-11-02T08:49:32;97080.44;;;13.71;72.73
64228;BME280;50546;49.146;10.616;2022-11-02T08:51:57;97081.72;;;13.74;72.16
64228;BME280;50546;49.146;10.616;2022-11-02T08:54:22;97082.81;;;13.56;71.60
64228;BME280;50546;49.146;10.616;2022-11-02T08:56:48;97083.09;;;13.45;72.61
64228;BME280;50546;49.146;10.616;2022-11-02T08:59:13;97093.94;;;13.14;73.55
64228;BME280;50546;49.146;10.616;2022-11-02T09:01:38;97088.59;;;12.92;73.61
64228;BME280;50546;49.146;10.616;2022-11-02T09:04:04;97099.31;;;12.97;74.61
64228;BME280;50546;49.146;10.616;2022-11-02T09:06:30;97097.75;;;13.05;75.06
64228;BME280;50546;49.146;10.616;2022-11-02T09:08:55;97088.28;;;13.24;74.01
64228;BME280;50546;49.146;10.616;2022-11-02T09:11:21;97101.94;;;13.19;73.80
64228;BME280;50546;49.146;10.616;2022-11-02T09:13:46;97104.56;;;13.02;73.98
64228;BME280;50546;49.146;10.616;2022-11-02T09:16:11;97108.50;;;13.27;73.75
64228;BME280;50546;49.146;10.616;2022-11-02T09:18:37;97102.16;;;13.32;74.33
64228;BME280;50546;49.146;10.616;2022-11-02T09:21:03;97099.31;;;13.37;74.24
64228;BME280;50546;49.146;10.616;2022-11-02T09:23:29;97101.81;;;13.24;74.10
64228;BME280;50546;49.146;10.616;2022-11-02T09:25:54;97100.00;;;13.11;73.44
64228;BME280;50546;49.146;10.616;2022-11-02T09:28:21;97110.22;;;13.23;73.21
64228;BME280;50546;49.146;10.616;2022-11-02T09:30:46;97114.91;;;13.00;74.49
64228;BME280;50546;49.146;10.616;2022-11-02T09:33:12;97100.19;;;12.84;74.16
64228;BME280;50546;49.146;10.616;2022-11-02T09:35:46;97111.00;;;12.84;75.26
64228;BME280;50546;49.146;10.616;2022-11-02T09:38:13;97104.09;;;13.00;74.94
64228;BME280;50546;49.146;10.616;2022-11-02T09:40:40;97110.31;;;13.09;74.66
64228;BME280;50546;49.146;10.616;2022-11-02T09:45:43;97111.88;;;13.33;73.78
64228;BME280;50546;49.146;10.616;2022-11-02T09:48:18;97116.81;;;13.31;74.64
64228;BME280;50546;49.146;10.616;2022-11-02T09:50:47;97102.66;;;13.34;73.87
64228;BME280;50546;49.146;10.616;2022-11-02T09:53:17;97113.47;;;13.34;74.48
64228;BME280;50546;49.146;10.616;2022-11-02T09:55:50;97107.97;;;13.56;73.65
64228;BME280;50546;49.146;10.616;2022-11-02T09:58:21;97111.16;;;13.58;73.25
64228;BME280;50546;49.146;10.616;2022-11-02T10:00:51;97114.66;;;13.59;72.65
64228;BME280;50546;49.146;10.616;2022-11-02T10:03:32;97117.53;;;13.71;71.89
64228;BME280;50546;49.146;10.616;2022-11-02T10:06:09;97117.34;;;13.50;70.38
64228;BME280;50546;49.146;10.616;2022-11-02T10:11:54;97115.69;;;13.32;71.41
64228;BME280;50546;49.146;10.616;2022-11-02T10:14:16;97112.53;;;13.47;69.47
64228;BME280;50546;49.146;10.616;2022-11-02T10:16:48;97119.78;;;13.78;70.30
64228;BME280;50546;49.146;10.616;2022-11-02T10:19:19;97116.94;;;14.26;69.97
64228;BME280;50546;49.146;10.616;2022-11-02T10:21:47;97124.78;;;14.28;68.46
64228;BME280;50546;49.146;10.616;2022-11-02T10:26:48;97115.19;;;14.21;67.86
64228;BME280;50546;49.146;10.616;2022-11-02T10:29:22;97115.84;;;14.36;66.69
64228;BME280;50546;49.146;10.616;2022-11-02T10:31:50;97121.25;;;14.18;66.49
64228;BME280;50546;49.146;10.616;2022-11-02T10:34:23;97114.06;;;14.23;66.68
64228;BME280;50546;49.146;10.616;2022-11-02T10:36:59;97116.78;;;14.40;67.44
64228;BME280;50546;49.146;10.616;2022-11-02T10:39:45;97109.13;;;14.59;66.06
64228;BME280;50546;49.146;10.616;2022-11-02T10:42:26;97106.75;;;14.58;66.02
64228;BME280;50546;49.146;10.616;2022-11-02T10:48:18;97111.84;;;14.16;65.99
64228;BME280;50546;49.146;10.616;2022-11-02T10:51:09;97113.59;;;14.03;66.76
64228;BME280;50546;49.146;10.616;2022-11-02T10:53:41;97115.84;;;14.18;66.92
64228;BME280;50546;49.146;10.616;2022-11-02T11:01:36;97100.56;;;14.05;67.43
64228;BME280;50546;49.146;10.616;2022-11-02T11:04:04;97100.84;;;14.30;66.71
64228;BME280;50546;49.146;10.616;2022-11-02T11:11:35;97101.47;;;14.61;66.13
64228;BME280;50546;49.146;10.616;2022-11-02T11:16:42;97104.69;;;14.55;65.15
64228;BME280;50546;49.146;10.616;2022-11-02T11:19:35;97093.03;;;14.45;64.93
64228;BME280;50546;49.146;10.616;2022-11-02T11:22:21;97096.06;;;14.61;65.50
64228;BME280;50546;49.146;10.616;2022-11-02T11:24:47;97098.88;;;14.74;64.18
64228;BME280;50546;49.146;10.616;2022-11-02T11:27:22;97097.78;;;14.49;64.54
64228;BME280;50546;49.146;10.616;2022-11-02T11:29:55;97097.66;;;14.54;64.40
64228;BME280;50546;49.146;10.616;2022-11-02T11:32:26;97102.47;;;14.31;65.17
64228;BME280;50546;49.146;10.616;2022-11-02T11:34:59;97099.09;;;14.25;65.79
64228;BME280;50546;49.146;10.616;2022-11-02T11:37:25;97091.63;;;14.31;65.98
64228;BME280;50546;49.146;10.616;2022-11-02T11:39:55;97096.72;;;14.06;65.84
64228;BME280;50546;49.146;10.616;2022-11-02T11:42:25;97097.97;;;14.00;67.80
64228;BME280;50546;49.146;10.616;2022-11-02T11:45:04;97095.59;;;14.07;68.67
64228;BME280;50546;49.146;10.616;2022-11-02T11:47:38;97097.03;;;13.96;69.05
64228;BME280;50546;49.146;10.616;2022-11-02T11:50:15;97094.63;;;13.86;68.97
64228;BME280;50546;49.146;10.616;2022-11-02T11:52:41;97085.72;;;14.03;68.99
64228;BME280;50546;49.146;10.616;2022-11-02T11:55:28;97076.78;;;14.28;67.92
64228;BME280;50546;49.146;10.616;2022-11-02T11:58:15;97078.22;;;14.34;66.29
64228;BME280;50546;49.146;10.616;2022-11-02T12:00:43;97079.31;;;14.33;66.09
64228;BME280;50546;49.146;10.616;2022-11-02T12:03:10;97071.66;;;14.61;66.45
64228;BME280;50546;49.146;10.616;2022-11-02T12:05:52;97066.78;;;14.93;64.64
64228;BME280;50546;49.146;10.616;2022-11-02T12:08:36;97074.31;;;15.17;65.46
64228;BME280;50546;49.146;10.616;2022-11-02T12:11:16;97082.13;;;14.89;64.38
64228;BME280;50546;49.146;10.616;2022-11-02T12:14:01;97079.34;;;14.98;64.49
64228;BME280;50546;49.146;10.616;2022-11-02T12:16:57;97074.56;;;15.03;64.75
64228;BME280;50546;49.146;10.616;2022-11-02T12:30:02;97087.59;;;14.72;62.71
64228;BME280;50546;49.146;10.616;2022-11-02T12:35:26;97086.81;;;14.36;62.74
64228;BME280;50546;49.146;10.616;2022-11-02T12:38:38;97088.59;;;14.50;63.23
64228;BME280;50546;49.146;10.616;2022-11-02T12:41:13;97080.56;;;14.62;62.69
64228;BME280;50546;49.146;10.616;2022-11-02T12:43:47;97084.41;;;15.76;61.17
64228;BME280;50546;49.146;10.616;2022-11-02T12:48:56;97062.66;;;20.32;47.53
64228;BME280;50546;49.146;10.616;2022-11-02T12:51:29;97052.63;;;20.55;46.36
64228;BME280;50546;49.146;10.616;2022-11-02T12:54:00;97052.38;;;20.64;44.91
64228;BME280;50546;49.146;10.616;2022-11-02T12:59:02;97044.84;;;21.53;42.48
64228;BME280;50546;49.146;10.616;2022-11-02T13:01:35;97054.84;;;20.50;44.15
64228;BME280;50546;49.146;10.616;2022-11-02T13:04:08;97049.16;;;21.50;43.77
64228;BME280;50546;49.146;10.616;2022-11-02T13:06:41;97046.13;;;20.86;42.83
64228;BME280;50546;49.146;10.616;2022-11-02T13:09:32;97045.75;;;19.05;47.32
64228;BME280;50546;49.146;10.616;2022-11-02T13:12:05;97042.69;;;17.90;49.73
64228;BME280;50546;49.146;10.616;2022-11-02T13:14:38;97048.59;;;17.80;51.16
64228;BME280;50546;49.146;10.616;2022-11-02T13:17:11;97037.78;;;19.63;47.78
64228;BME280;50546;49.146;10.616;2022-11-02T13:19:46;97041.94;;;20.92;44.65
64228;BME280;50546;49.146;10.616;2022-11-02T13:22:14;97031.38;;;21.41;42.96
64228;BME280;50546;49.146;10.616;2022-11-02T13:24:44;97032.94;;;21.42;41.90
64228;BME280;50546;49.146;10.616;2022-11-02T13:27:24;97031.03;;;21.72;41.21
64228;BME280;50546;49.146;10.616;2022-11-02T13:29:53;97028.91;;;22.15;41.26
64228;BME280;50546;49.146;10.616;2022-11-02T13:32:31;97035.75;;;22.69;40.07
64228;BME280;50546;49.146;10.616;2022-11-02T13:34:57;97030.00;;;22.81;39.01
64228;BME280;50546;49.146;10.616;2022-11-02T13:37:32;97026.97;;;22.53;40.15
64228;BME280;50546;49.146;10.616;2022-11-02T13:40:04;97024.47;;;21.50;40.88
64228;BME280;50546;49.146;10.616;2022-11-02T13:48:35;97042.00;;;20.34;43.59
64228;BME280;50546;49.146;10.616;2022-11-02T13:51:07;97045.59;;;18.82;46.81
64228;BME280;50546;49.146;10.616;2022-11-02T13:53:38;97040.69;;;18.59;47.78
64228;BME280;50546;49.146;10.616;2022-11-02T13:56:09;97041.59;;;17.54;48.98
64228;BME280;50546;49.146;10.616;2022-11-02T13:58:46;97040.88;;;16.84;50.65
64228;BME280;50546;49.146;10.616;2022-11-02T14:01:16;97037.66;;;16.70;52.02
64228;BME280;50546;49.146;10.616;2022-11-02T14:03:53;97039.59;;;16.69;51.32
64228;BME280;50546;49.146;10.616;2022-11-02T14:06:20;97044.63;;;16.92;51.02
64228;BME280;50546;49.146;10.616;2022-11-02T14:08:50;97039.53;;;17.39;50.73
64228;BME280;50546;49.146;10.616;2022-11-02T14:22:04;97037.38;;;18.38;45.98